createdAt,value
2023-05-01T05:30:56.806Z,5.50
2023-05-01T05:33:58.594Z,6.07
2023-05-01T05:37:00.240Z,6.05
2023-05-01T05:40:01.938Z,6.43
2023-05-01T05:43:04.042Z,6.20
2023-05-01T05:46:06.004Z,5.78
2023-05-01T05:49:07.689Z,6.90
2023-05-01T05:52:09.332Z,7.20
2023-05-01T05:55:11.447Z,6.75
2023-05-01T05:58:14.554Z,5.80
2023-05-01T06:01:16.274Z,6.18
2023-05-01T06:04:17.896Z,6.75
2023-05-01T06:07:19.707Z,5.70
2023-05-01T06:10:21.354Z,5.95
2023-05-01T06:49:29.094Z,6.45
2023-05-01T06:52:31.027Z,6.50
2023-05-01T06:55:34.544Z,5.20
2023-05-01T06:58:37.554Z,4.75
2023-05-01T07:01:39.616Z,4.53
2023-05-01T07:04:42.130Z,4.78
2023-05-01T07:07:50.465Z,4.70
2023-05-01T07:10:59.893Z,4.85
2023-05-01T07:14:01.901Z,5.60
2023-05-01T07:17:03.975Z,4.70
2023-05-01T07:20:06.281Z,4.70
2023-05-01T07:23:07.925Z,4.55
2023-05-01T07:26:10.119Z,4.45
2023-05-01T07:29:13.298Z,4.80
2023-05-01T07:32:15.253Z,4.53
2023-05-01T07:35:17.013Z,4.35
2023-05-01T07:38:19.367Z,4.15
2023-05-01T07:41:22.662Z,6.40
2023-05-01T07:44:24.375Z,3.75
2023-05-01T07:47:27.659Z,4.47
2023-05-01T07:50:29.614Z,4.53
2023-05-01T07:53:31.864Z,5.10
2023-05-01T07:56:33.608Z,4.82
2023-05-01T07:59:35.291Z,4.53
2023-05-01T08:02:37.227Z,4.07
2023-05-01T08:05:42.582Z,3.67
2023-05-01T08:08:44.392Z,3.67
2023-05-01T08:11:46.120Z,3.95
2023-05-01T08:14:47.793Z,4.93
2023-05-01T08:17:51.111Z,5.15
2023-05-01T08:20:53.120Z,5.32
2023-05-01T08:23:56.493Z,5.63
2023-05-01T08:26:58.321Z,6.15
2023-05-01T08:29:59.960Z,5.15
2023-05-01T08:33:01.919Z,5.60
2023-05-01T08:36:03.742Z,5.05
2023-05-01T08:39:05.440Z,5.40
2023-05-01T08:42:08.084Z,5.38
2023-05-01T08:45:10.782Z,4.80
2023-05-01T08:48:13.185Z,4.97
2023-05-01T08:54:20.889Z,5.17
2023-05-01T08:57:22.829Z,4.88
2023-05-01T09:00:25.422Z,4.93
2023-05-01T09:03:28.890Z,4.35
2023-05-01T09:06:32.457Z,3.97
2023-05-01T09:09:37.563Z,4.10
2023-05-01T09:12:40.162Z,4.68
2023-05-01T09:15:42.152Z,5.20
2023-05-01T09:18:43.963Z,5.10
2023-05-01T09:21:46.526Z,4.70
2023-05-01T09:24:48.432Z,6.35
2023-05-01T09:27:51.169Z,5.68
2023-05-01T09:30:52.799Z,5.05
2023-05-01T09:34:05.578Z,5.75
2023-05-01T09:37:07.253Z,5.10
2023-05-01T09:40:14.282Z,6.07
2023-05-01T09:43:26.647Z,6.00
2023-05-01T09:46:28.599Z,5.28
2023-05-01T09:49:48.141Z,5.45
2023-05-01T09:52:52.441Z,4.78
2023-05-01T09:56:03.304Z,5.10
2023-05-01T09:59:22.045Z,4.68
2023-05-01T10:02:32.868Z,4.70
2023-05-01T10:05:44.802Z,5.18
2023-05-01T10:08:50.987Z,4.88
2023-05-01T10:11:57.234Z,4.63
2023-05-01T10:15:01.768Z,5.40
2023-05-01T10:18:11.578Z,5.10
2023-05-01T10:21:16.694Z,5.03
2023-05-01T10:24:18.667Z,5.28
2023-05-01T10:27:22.485Z,4.93
2023-05-01T10:30:26.466Z,5.13
2023-05-01T10:33:28.732Z,5.35
2023-05-01T10:36:37.332Z,4.50
2023-05-01T10:39:39.331Z,6.25
2023-05-01T10:43:16.113Z,5.70
2023-05-01T10:46:19.239Z,6.53
2023-05-01T10:49:21.557Z,6.45
2023-05-01T10:52:23.515Z,6.13
2023-05-01T10:55:35.234Z,5.90
2023-05-01T10:58:37.137Z,5.65
2023-05-01T11:01:45.061Z,5.13
2023-05-01T11:04:51.779Z,5.28
2023-05-01T11:08:31.593Z,4.00
2023-05-01T11:11:33.253Z,4.35
2023-05-01T11:14:53.599Z,4.10
2023-05-01T11:17:56.028Z,3.72
2023-05-01T11:20:58.013Z,4.05
2023-05-01T11:24:09.498Z,3.97
2023-05-01T11:27:13.737Z,4.53
2023-05-01T11:30:16.404Z,3.35
2023-05-01T11:33:23.235Z,3.88
2023-05-01T11:36:25.387Z,3.72
2023-05-01T11:39:27.205Z,3.90
2023-05-01T11:42:29.066Z,4.68
2023-05-01T11:45:31.829Z,4.18
2023-05-01T11:48:33.869Z,4.85
2023-05-01T11:51:35.781Z,4.53
2023-05-01T11:54:48.157Z,5.13
2023-05-01T11:57:53.570Z,4.22
2023-05-01T12:00:55.260Z,5.03
2023-05-01T12:03:57.357Z,4.80
2023-05-01T12:06:59.197Z,4.75
2023-05-01T12:10:01.325Z,4.43
2023-05-01T12:13:07.640Z,4.80
2023-05-01T12:16:09.960Z,4.72
2023-05-01T12:19:13.956Z,4.78
2023-05-01T12:22:15.719Z,5.40
2023-05-01T12:25:17.760Z,4.90
2023-05-01T12:28:20.441Z,5.13
2023-05-01T12:31:22.937Z,5.53
2023-05-01T12:34:30.897Z,5.57
2023-05-01T12:37:32.792Z,5.00
2023-05-01T12:40:34.460Z,5.65
2023-05-01T12:43:38.089Z,5.53
2023-05-01T12:46:40.219Z,6.03
2023-05-01T12:49:42.050Z,6.35
2023-05-01T12:52:43.849Z,5.30
2023-05-01T12:55:47.164Z,5.70
2023-05-01T12:58:49.493Z,5.47
2023-05-01T13:02:02.291Z,5.38
2023-05-01T13:05:10.046Z,5.30
2023-05-01T13:08:12.998Z,4.82
2023-05-01T13:11:17.341Z,5.10
2023-05-01T13:14:19.266Z,4.50
2023-05-01T13:17:31.988Z,3.92
2023-05-01T13:20:33.927Z,5.00
2023-05-01T13:23:37.470Z,5.55
2023-05-01T13:26:39.339Z,5.30
2023-05-01T13:29:45.641Z,5.50
2023-05-01T13:32:48.859Z,5.22
2023-05-01T13:35:50.751Z,6.10
2023-05-01T13:38:54.467Z,5.50
2023-05-01T13:41:56.318Z,5.88
2023-05-01T13:44:58.103Z,5.95
2023-05-01T13:47:59.851Z,5.75
2023-05-01T13:51:01.524Z,6.15
2023-05-01T13:54:07.206Z,5.78
2023-05-01T13:57:09.754Z,6.90
2023-05-01T14:00:19.137Z,6.55
2023-05-01T14:03:21.692Z,6.43
2023-05-01T14:06:26.171Z,6.32
2023-05-01T14:09:28.204Z,6.20
2023-05-01T14:12:31.238Z,6.82
2023-05-01T14:15:36.572Z,6.00
2023-05-01T14:18:45.546Z,5.68
2023-05-01T14:21:47.714Z,6.10
2023-05-01T14:24:51.039Z,6.30
2023-05-01T14:27:54.135Z,6.25
2023-05-01T14:30:56.024Z,6.22
2023-05-01T14:34:00.806Z,5.63
2023-05-01T14:37:02.517Z,6.13
2023-05-01T14:40:11.255Z,5.78
2023-05-01T14:43:16.823Z,4.93
2023-05-01T14:46:32.527Z,5.65
2023-05-01T14:49:35.482Z,5.15
2023-05-01T14:52:39.040Z,5.03
2023-05-01T14:55:41.889Z,5.50
2023-05-01T14:58:45.028Z,4.55
2023-05-01T15:01:46.725Z,5.72
2023-05-01T15:04:48.646Z,4.50
2023-05-01T15:07:51.166Z,4.50
2023-05-01T15:10:53.011Z,4.47
2023-05-01T15:13:54.776Z,4.50
2023-05-01T15:16:56.664Z,5.20
2023-05-01T15:19:58.431Z,5.22
2023-05-01T15:23:00.062Z,6.85
2023-05-01T15:26:01.741Z,6.65
2023-05-01T15:29:03.592Z,9.55
2023-05-01T15:32:12.392Z,9.02
2023-05-01T15:35:15.062Z,12.77
2023-05-01T15:38:17.216Z,15.38
2023-05-01T15:41:19.258Z,12.20
2023-05-01T15:44:21.148Z,13.27
2023-05-01T15:47:26.409Z,9.68
2023-05-01T15:53:29.922Z,8.90
2023-05-01T15:56:36.591Z,8.88
2023-05-01T15:59:40.364Z,11.80
